sensor_id;sensor_type;location;lat;lon;timestamp;P1;durP1;ratioP1;P2;durP2;ratioP2
2021;SDS011;1015;49.756;6.994;2023-08-06T00:01:03;2.13;;;1.63;;
2021;SDS011;1015;49.756;6.994;2023-08-06T00:03:30;2.93;;;2.70;;
2021;SDS011;1015;49.756;6.994;2023-08-06T00:05:57;4.07;;;3.10;;
2021;SDS011;1015;49.756;6.994;2023-08-06T00:08:24;3.43;;;2.73;;
2021;SDS011;1015;49.756;6.994;2023-08-06T00:10:52;3.90;;;3.00;;
2021;SDS011;1015;49.756;6.994;2023-08-06T00:13:19;3.47;;;2.70;;
2021;SDS011;1015;49.756;6.994;2023-08-06T00:15:46;4.80;;;2.60;;
2021;SDS011;1015;49.756;6.994;2023-08-06T00:18:14;5.50;;;3.70;;
2021;SDS011;1015;49.756;6.994;2023-08-06T00:20:41;2.93;;;2.70;;
2021;SDS011;1015;49.756;6.994;2023-08-06T00:23:08;2.57;;;2.37;;
2021;SDS011;1015;49.756;6.994;2023-08-06T00:25:36;3.10;;;2.40;;
2021;SDS011;1015;49.756;6.994;2023-08-06T00:28:03;2.33;;;2.03;;
2021;SDS011;1015;49.756;6.994;2023-08-06T00:30:31;2.30;;;2.10;;
2021;SDS011;1015;49.756;6.994;2023-08-06T00:32:58;3.93;;;2.23;;
2021;SDS011;1015;49.756;6.994;2023-08-06T00:35:26;3.20;;;2.07;;
2021;SDS011;1015;49.756;6.994;2023-08-06T00:37:53;2.00;;;1.80;;
2021;SDS011;1015;49.756;6.994;2023-08-06T00:40:20;3.43;;;1.60;;
2021;SDS011;1015;49.756;6.994;2023-08-06T00:42:48;2.67;;;1.70;;
2021;SDS011;1015;49.756;6.994;2023-08-06T00:45:15;2.93;;;2.00;;
2021;SDS011;1015;49.756;6.994;2023-08-06T00:47:43;4.30;;;1.90;;
2021;SDS011;1015;49.756;6.994;2023-08-06T00:50:11;3.73;;;1.60;;
2021;SDS011;1015;49.756;6.994;2023-08-06T00:52:39;2.77;;;1.60;;
2021;SDS011;1015;49.756;6.994;2023-08-06T00:55:07;4.63;;;1.70;;
2021;SDS011;1015;49.756;6.994;2023-08-06T00:57:34;4.63;;;2.13;;
2021;SDS011;1015;49.756;6.994;2023-08-06T01:00:02;2.87;;;1.40;;
2021;SDS011;1015;49.756;6.994;2023-08-06T01:02:30;1.97;;;1.30;;
2021;SDS011;1015;49.756;6.994;2023-08-06T01:04:57;3.13;;;1.50;;
2021;SDS011;1015;49.756;6.994;2023-08-06T01:07:28;3.60;;;1.50;;
2021;SDS011;1015;49.756;6.994;2023-08-06T01:10:00;6.80;;;1.50;;
2021;SDS011;1015;49.756;6.994;2023-08-06T01:12:38;3.37;;;1.80;;
2021;SDS011;1015;49.756;6.994;2023-08-06T01:15:09;2.70;;;1.67;;
2021;SDS011;1015;49.756;6.994;2023-08-06T01:17:38;1.97;;;1.23;;
2021;SDS011;1015;49.756;6.994;2023-08-06T01:20:06;3.23;;;1.30;;
2021;SDS011;1015;49.756;6.994;2023-08-06T01:22:34;3.80;;;1.40;;
2021;SDS011;1015;49.756;6.994;2023-08-06T01:25:02;1.20;;;1.10;;
2021;SDS011;1015;49.756;6.994;2023-08-06T01:27:30;1.60;;;1.20;;
2021;SDS011;1015;49.756;6.994;2023-08-06T01:30:02;3.90;;;1.00;;
2021;SDS011;1015;49.756;6.994;2023-08-06T01:32:30;1.57;;;0.90;;
2021;SDS011;1015;49.756;6.994;2023-08-06T01:34:59;3.50;;;1.07;;
2021;SDS011;1015;49.756;6.994;2023-08-06T01:37:27;2.00;;;1.20;;
2021;SDS011;1015;49.756;6.994;2023-08-06T01:39:56;1.33;;;1.00;;
2021;SDS011;1015;49.756;6.994;2023-08-06T01:42:24;1.70;;;0.80;;
2021;SDS011;1015;49.756;6.994;2023-08-06T01:44:51;1.90;;;0.90;;
2021;SDS011;1015;49.756;6.994;2023-08-06T01:47:18;1.90;;;0.90;;
2021;SDS011;1015;49.756;6.994;2023-08-06T01:49:45;1.07;;;0.90;;
2021;SDS011;1015;49.756;6.994;2023-08-06T01:52:13;1.47;;;1.03;;
2021;SDS011;1015;49.756;6.994;2023-08-06T01:54:40;2.73;;;0.90;;
2021;SDS011;1015;49.756;6.994;2023-08-06T01:57:08;2.47;;;1.03;;
2021;SDS011;1015;49.756;6.994;2023-08-06T01:59:35;1.40;;;1.13;;
2021;SDS011;1015;49.756;6.994;2023-08-06T02:02:03;1.20;;;0.70;;
2021;SDS011;1015;49.756;6.994;2023-08-06T02:04:30;2.07;;;0.70;;
2021;SDS011;1015;49.756;6.994;2023-08-06T02:06:57;0.90;;;0.80;;
2021;SDS011;1015;49.756;6.994;2023-08-06T02:09:24;1.07;;;0.87;;
2021;SDS011;1015;49.756;6.994;2023-08-06T02:11:51;0.60;;;0.57;;
2021;SDS011;1015;49.756;6.994;2023-08-06T02:14:20;0.70;;;0.50;;
2021;SDS011;1015;49.756;6.994;2023-08-06T02:16:47;0.73;;;0.60;;
2021;SDS011;1015;49.756;6.994;2023-08-06T02:19:14;1.40;;;0.50;;
2021;SDS011;1015;49.756;6.994;2023-08-06T02:21:42;1.20;;;0.67;;
2021;SDS011;1015;49.756;6.994;2023-08-06T02:24:09;0.50;;;0.40;;
2021;SDS011;1015;49.756;6.994;2023-08-06T02:26:36;1.10;;;0.47;;
2021;SDS011;1015;49.756;6.994;2023-08-06T02:29:03;0.57;;;0.30;;
2021;SDS011;1015;49.756;6.994;2023-08-06T02:31:32;0.40;;;0.40;;
2021;SDS011;1015;49.756;6.994;2023-08-06T02:33:59;0.57;;;0.53;;
2021;SDS011;1015;49.756;6.994;2023-08-06T02:36:26;0.50;;;0.30;;
2021;SDS011;1015;49.756;6.994;2023-08-06T02:38:54;0.40;;;0.30;;
2021;SDS011;1015;49.756;6.994;2023-08-06T02:41:21;0.40;;;0.30;;
2021;SDS011;1015;49.756;6.994;2023-08-06T02:43:48;0.40;;;0.30;;
2021;SDS011;1015;49.756;6.994;2023-08-06T02:46:15;0.50;;;0.30;;
2021;SDS011;1015;49.756;6.994;2023-08-06T02:48:44;2.23;;;0.30;;
2021;SDS011;1015;49.756;6.994;2023-08-06T02:51:11;0.50;;;0.40;;
2021;SDS011;1015;49.756;6.994;2023-08-06T02:53:38;0.40;;;0.20;;
2021;SDS011;1015;49.756;6.994;2023-08-06T02:56:06;0.40;;;0.30;;
2021;SDS011;1015;49.756;6.994;2023-08-06T02:58:33;0.40;;;0.30;;
2021;SDS011;1015;49.756;6.994;2023-08-06T03:01:00;0.80;;;0.40;;
2021;SDS011;1015;49.756;6.994;2023-08-06T03:03:28;1.20;;;0.40;;
2021;SDS011;1015;49.756;6.994;2023-08-06T03:05:56;0.50;;;0.30;;
2021;SDS011;1015;49.756;6.994;2023-08-06T03:08:24;0.87;;;0.40;;
2021;SDS011;1015;49.756;6.994;2023-08-06T03:10:51;0.50;;;0.40;;
2021;SDS011;1015;49.756;6.994;2023-08-06T03:13:19;0.80;;;0.50;;
2021;SDS011;1015;49.756;6.994;2023-08-06T03:15:52;0.40;;;0.23;;
2021;SDS011;1015;49.756;6.994;2023-08-06T03:18:20;0.40;;;0.30;;
2021;SDS011;1015;49.756;6.994;2023-08-06T03:20:47;1.17;;;0.30;;
2021;SDS011;1015;49.756;6.994;2023-08-06T03:23:15;0.40;;;0.30;;
2021;SDS011;1015;49.756;6.994;2023-08-06T03:25:42;0.40;;;0.30;;
2021;SDS011;1015;49.756;6.994;2023-08-06T03:28:10;0.73;;;0.63;;
2021;SDS011;1015;49.756;6.994;2023-08-06T03:30:37;0.40;;;0.37;;
2021;SDS011;1015;49.756;6.994;2023-08-06T03:33:04;0.43;;;0.40;;
2021;SDS011;1015;49.756;6.994;2023-08-06T03:35:31;0.57;;;0.40;;
2021;SDS011;1015;49.756;6.994;2023-08-06T03:37:58;0.40;;;0.30;;
2021;SDS011;1015;49.756;6.994;2023-08-06T03:40:27;0.50;;;0.30;;
2021;SDS011;1015;49.756;6.994;2023-08-06T03:42:54;0.70;;;0.50;;
2021;SDS011;1015;49.756;6.994;2023-08-06T03:45:21;1.67;;;0.40;;
2021;SDS011;1015;49.756;6.994;2023-08-06T03:47:48;0.60;;;0.30;;
2021;SDS011;1015;49.756;6.994;2023-08-06T03:50:15;0.40;;;0.30;;
2021;SDS011;1015;49.756;6.994;2023-08-06T03:52:42;1.33;;;0.30;;
2021;SDS011;1015;49.756;6.994;2023-08-06T03:55:10;1.57;;;0.30;;
2021;SDS011;1015;49.756;6.994;2023-08-06T03:57:38;0.50;;;0.30;;
2021;SDS011;1015;49.756;6.994;2023-08-06T04:00:06;0.50;;;0.33;;
2021;SDS011;1015;49.756;6.994;2023-08-06T04:02:33;0.50;;;0.30;;
2021;SDS011;1015;49.756;6.994;2023-08-06T04:05:00;0.40;;;0.30;;
2021;SDS011;1015;49.756;6.994;2023-08-06T04:07:28;0.50;;;0.40;;
2021;SDS011;1015;49.756;6.994;2023-08-06T04:09:56;0.40;;;0.40;;
2021;SDS011;1015;49.756;6.994;2023-08-06T04:12:23;0.50;;;0.40;;
2021;SDS011;1015;49.756;6.994;2023-08-06T04:14:52;2.43;;;0.40;;
2021;SDS011;1015;49.756;6.994;2023-08-06T04:17:20;2.10;;;0.40;;
2021;SDS011;1015;49.756;6.994;2023-08-06T04:19:47;0.50;;;0.47;;
2021;SDS011;1015;49.756;6.994;2023-08-06T04:22:14;0.67;;;0.40;;
2021;SDS011;1015;49.756;6.994;2023-08-06T04:24:42;0.50;;;0.50;;
2021;SDS011;1015;49.756;6.994;2023-08-06T04:27:09;1.43;;;0.50;;
2021;SDS011;1015;49.756;6.994;2023-08-06T04:29:36;1.47;;;0.60;;
2021;SDS011;1015;49.756;6.994;2023-08-06T04:32:06;0.53;;;0.40;;
2021;SDS011;1015;49.756;6.994;2023-08-06T04:34:33;0.40;;;0.30;;
2021;SDS011;1015;49.756;6.994;2023-08-06T04:37:00;0.40;;;0.33;;
2021;SDS011;1015;49.756;6.994;2023-08-06T04:39:27;1.23;;;0.40;;
2021;SDS011;1015;49.756;6.994;2023-08-06T04:41:55;0.60;;;0.50;;
2021;SDS011;1015;49.756;6.994;2023-08-06T04:44:22;0.50;;;0.40;;
2021;SDS011;1015;49.756;6.994;2023-08-06T04:46:49;0.60;;;0.40;;
2021;SDS011;1015;49.756;6.994;2023-08-06T04:49:19;0.67;;;0.43;;
2021;SDS011;1015;49.756;6.994;2023-08-06T04:51:46;0.40;;;0.30;;
2021;SDS011;1015;49.756;6.994;2023-08-06T04:54:13;0.40;;;0.30;;
2021;SDS011;1015;49.756;6.994;2023-08-06T04:56:40;0.50;;;0.40;;
2021;SDS011;1015;49.756;6.994;2023-08-06T04:59:07;1.03;;;0.57;;
2021;SDS011;1015;49.756;6.994;2023-08-06T05:01:34;0.40;;;0.40;;
2021;SDS011;1015;49.756;6.994;2023-08-06T05:04:02;0.60;;;0.40;;
2021;SDS011;1015;49.756;6.994;2023-08-06T05:06:30;0.40;;;0.30;;
2021;SDS011;1015;49.756;6.994;2023-08-06T05:08:57;0.40;;;0.30;;
2021;SDS011;1015;49.756;6.994;2023-08-06T05:11:24;0.40;;;0.30;;
2021;SDS011;1015;49.756;6.994;2023-08-06T05:13:51;1.23;;;0.50;;
2021;SDS011;1015;49.756;6.994;2023-08-06T05:16:19;0.40;;;0.40;;
2021;SDS011;1015;49.756;6.994;2023-08-06T05:18:46;0.40;;;0.30;;
2021;SDS011;1015;49.756;6.994;2023-08-06T05:21:13;0.63;;;0.40;;
2021;SDS011;1015;49.756;6.994;2023-08-06T05:23:42;1.07;;;0.53;;
2021;SDS011;1015;49.756;6.994;2023-08-06T05:26:09;0.50;;;0.30;;
2021;SDS011;1015;49.756;6.994;2023-08-06T05:28:37;0.50;;;0.40;;
2021;SDS011;1015;49.756;6.994;2023-08-06T05:31:04;0.90;;;0.50;;
2021;SDS011;1015;49.756;6.994;2023-08-06T05:33:31;0.43;;;0.33;;
2021;SDS011;1015;49.756;6.994;2023-08-06T05:35:58;0.60;;;0.50;;
2021;SDS011;1015;49.756;6.994;2023-08-06T05:38:25;0.40;;;0.40;;
2021;SDS011;1015;49.756;6.994;2023-08-06T05:40:54;0.50;;;0.50;;
2021;SDS011;1015;49.756;6.994;2023-08-06T05:43:21;0.60;;;0.60;;
2021;SDS011;1015;49.756;6.994;2023-08-06T05:45:49;0.77;;;0.47;;
2021;SDS011;1015;49.756;6.994;2023-08-06T05:48:16;4.23;;;1.27;;
2021;SDS011;1015;49.756;6.994;2023-08-06T05:50:43;0.40;;;0.40;;
2021;SDS011;1015;49.756;6.994;2023-08-06T05:53:11;0.60;;;0.60;;
2021;SDS011;1015;49.756;6.994;2023-08-06T05:55:38;0.40;;;0.30;;
2021;SDS011;1015;49.756;6.994;2023-08-06T05:58:06;0.30;;;0.30;;
2021;SDS011;1015;49.756;6.994;2023-08-06T06:00:34;1.73;;;0.80;;
2021;SDS011;1015;49.756;6.994;2023-08-06T06:03:01;0.70;;;0.60;;
2021;SDS011;1015;49.756;6.994;2023-08-06T06:05:28;0.40;;;0.30;;
2021;SDS011;1015;49.756;6.994;2023-08-06T06:07:55;0.83;;;0.53;;
2021;SDS011;1015;49.756;6.994;2023-08-06T06:10:22;0.60;;;0.40;;
2021;SDS011;1015;49.756;6.994;2023-08-06T06:12:49;0.70;;;0.40;;
2021;SDS011;1015;49.756;6.994;2023-08-06T06:15:18;1.23;;;0.90;;
2021;SDS011;1015;49.756;6.994;2023-08-06T06:17:45;0.40;;;0.40;;
2021;SDS011;1015;49.756;6.994;2023-08-06T06:20:12;0.70;;;0.53;;
2021;SDS011;1015;49.756;6.994;2023-08-06T06:22:39;0.80;;;0.47;;
2021;SDS011;1015;49.756;6.994;2023-08-06T06:25:07;0.50;;;0.40;;
2021;SDS011;1015;49.756;6.994;2023-08-06T06:27:34;0.70;;;0.40;;
2021;SDS011;1015;49.756;6.994;2023-08-06T06:30:02;0.60;;;0.50;;
2021;SDS011;1015;49.756;6.994;2023-08-06T06:32:30;0.40;;;0.30;;
2021;SDS011;1015;49.756;6.994;2023-08-06T06:34:57;0.90;;;0.60;;
2021;SDS011;1015;49.756;6.994;2023-08-06T06:37:24;0.60;;;0.37;;
2021;SDS011;1015;49.756;6.994;2023-08-06T06:39:52;0.40;;;0.40;;
2021;SDS011;1015;49.756;6.994;2023-08-06T06:42:19;0.40;;;0.30;;
2021;SDS011;1015;49.756;6.994;2023-08-06T06:44:47;1.23;;;0.80;;
2021;SDS011;1015;49.756;6.994;2023-08-06T06:47:14;1.17;;;0.60;;
2021;SDS011;1015;49.756;6.994;2023-08-06T06:49:43;0.70;;;0.70;;
2021;SDS011;1015;49.756;6.994;2023-08-06T06:52:10;1.13;;;0.70;;
2021;SDS011;1015;49.756;6.994;2023-08-06T06:54:37;1.17;;;0.63;;
2021;SDS011;1015;49.756;6.994;2023-08-06T06:57:04;1.17;;;0.60;;
2021;SDS011;1015;49.756;6.994;2023-08-06T06:59:32;1.00;;;0.60;;
2021;SDS011;1015;49.756;6.994;2023-08-06T07:01:59;0.70;;;0.60;;
2021;SDS011;1015;49.756;6.994;2023-08-06T07:04:26;0.83;;;0.60;;
2021;SDS011;1015;49.756;6.994;2023-08-06T07:06:54;0.80;;;0.60;;
2021;SDS011;1015;49.756;6.994;2023-08-06T07:09:21;0.90;;;0.67;;
2021;SDS011;1015;49.756;6.994;2023-08-06T07:11:49;0.80;;;0.70;;
2021;SDS011;1015;49.756;6.994;2023-08-06T07:14:16;0.70;;;0.70;;
2021;SDS011;1015;49.756;6.994;2023-08-06T07:16:43;0.77;;;0.70;;
2021;SDS011;1015;49.756;6.994;2023-08-06T07:19:10;8.30;;;1.20;;
2021;SDS011;1015;49.756;6.994;2023-08-06T07:21:38;0.70;;;0.60;;
2021;SDS011;1015;49.756;6.994;2023-08-06T07:24:06;1.53;;;0.80;;
2021;SDS011;1015;49.756;6.994;2023-08-06T07:26:33;0.83;;;0.60;;
2021;SDS011;1015;49.756;6.994;2023-08-06T07:29:00;1.27;;;0.80;;
2021;SDS011;1015;49.756;6.994;2023-08-06T07:31:28;0.70;;;0.50;;
2021;SDS011;1015;49.756;6.994;2023-08-06T07:33:55;1.10;;;0.50;;
2021;SDS011;1015;49.756;6.994;2023-08-06T07:36:22;0.60;;;0.40;;
2021;SDS011;1015;49.756;6.994;2023-08-06T07:38:49;1.63;;;0.57;;
2021;SDS011;1015;49.756;6.994;2023-08-06T07:41:22;0.90;;;0.70;;
2021;SDS011;1015;49.756;6.994;2023-08-06T07:43:49;0.70;;;0.47;;
2021;SDS011;1015;49.756;6.994;2023-08-06T07:46:16;0.50;;;0.40;;
2021;SDS011;1015;49.756;6.994;2023-08-06T07:48:43;0.70;;;0.57;;
2021;SDS011;1015;49.756;6.994;2023-08-06T07:51:10;0.60;;;0.57;;
2021;SDS011;1015;49.756;6.994;2023-08-06T07:53:37;0.70;;;0.50;;
2021;SDS011;1015;49.756;6.994;2023-08-06T07:56:04;0.50;;;0.40;;
2021;SDS011;1015;49.756;6.994;2023-08-06T07:58:33;1.00;;;0.50;;
2021;SDS011;1015;49.756;6.994;2023-08-06T08:01:00;0.60;;;0.40;;
2021;SDS011;1015;49.756;6.994;2023-08-06T08:03:27;0.50;;;0.40;;
2021;SDS011;1015;49.756;6.994;2023-08-06T08:05:55;0.60;;;0.43;;
2021;SDS011;1015;49.756;6.994;2023-08-06T08:08:25;0.60;;;0.40;;
2021;SDS011;1015;49.756;6.994;2023-08-06T08:10:53;0.60;;;0.40;;
2021;SDS011;1015;49.756;6.994;2023-08-06T08:13:21;0.40;;;0.30;;
2021;SDS011;1015;49.756;6.994;2023-08-06T08:15:49;0.40;;;0.30;;
2021;SDS011;1015;49.756;6.994;2023-08-06T08:18:16;0.60;;;0.40;;
2021;SDS011;1015;49.756;6.994;2023-08-06T08:20:43;0.40;;;0.30;;
2021;SDS011;1015;49.756;6.994;2023-08-06T08:23:10;0.50;;;0.30;;
2021;SDS011;1015;49.756;6.994;2023-08-06T08:25:37;1.50;;;0.47;;
2021;SDS011;1015;49.756;6.994;2023-08-06T08:28:05;0.70;;;0.50;;
2021;SDS011;1015;49.756;6.994;2023-08-06T08:30:32;0.60;;;0.30;;
2021;SDS011;1015;49.756;6.994;2023-08-06T08:33:00;0.40;;;0.30;;
2021;SDS011;1015;49.756;6.994;2023-08-06T08:35:27;2.40;;;0.73;;
2021;SDS011;1015;49.756;6.994;2023-08-06T08:37:54;0.47;;;0.30;;
2021;SDS011;1015;49.756;6.994;2023-08-06T08:40:21;0.40;;;0.40;;
2021;SDS011;1015;49.756;6.994;2023-08-06T08:42:50;0.70;;;0.40;;
2021;SDS011;1015;49.756;6.994;2023-08-06T08:45:17;0.77;;;0.60;;
2021;SDS011;1015;49.756;6.994;2023-08-06T08:47:47;0.70;;;0.47;;
2021;SDS011;1015;49.756;6.994;2023-08-06T08:50:15;0.80;;;0.57;;
2021;SDS011;1015;49.756;6.994;2023-08-06T08:52:44;1.00;;;0.80;;
2021;SDS011;1015;49.756;6.994;2023-08-06T08:55:14;0.70;;;0.60;;
2021;SDS011;1015;49.756;6.994;2023-08-06T08:57:41;0.60;;;0.50;;
2021;SDS011;1015;49.756;6.994;2023-08-06T09:00:08;0.93;;;0.70;;
2021;SDS011;1015;49.756;6.994;2023-08-06T09:02:36;0.80;;;0.70;;
2021;SDS011;1015;49.756;6.994;2023-08-06T09:05:04;1.00;;;0.80;;
2021;SDS011;1015;49.756;6.994;2023-08-06T09:07:35;0.67;;;0.60;;
2021;SDS011;1015;49.756;6.994;2023-08-06T09:10:02;1.23;;;0.70;;
2021;SDS011;1015;49.756;6.994;2023-08-06T09:12:30;1.00;;;0.70;;
2021;SDS011;1015;49.756;6.994;2023-08-06T09:14:58;1.00;;;0.70;;
2021;SDS011;1015;49.756;6.994;2023-08-06T09:17:25;1.10;;;0.73;;
2021;SDS011;1015;49.756;6.994;2023-08-06T09:19:53;1.00;;;0.67;;
2021;SDS011;1015;49.756;6.994;2023-08-06T09:22:20;0.60;;;0.57;;
2021;SDS011;1015;49.756;6.994;2023-08-06T09:24:49;0.73;;;0.50;;
2021;SDS011;1015;49.756;6.994;2023-08-06T09:27:16;1.23;;;0.67;;
2021;SDS011;1015;49.756;6.994;2023-08-06T09:29:44;5.53;;;1.07;;
2021;SDS011;1015;49.756;6.994;2023-08-06T09:32:11;0.73;;;0.73;;
2021;SDS011;1015;49.756;6.994;2023-08-06T09:34:38;0.80;;;0.60;;
2021;SDS011;1015;49.756;6.994;2023-08-06T09:37:07;0.70;;;0.70;;
2021;SDS011;1015;49.756;6.994;2023-08-06T09:39:35;0.50;;;0.50;;
2021;SDS011;1015;49.756;6.994;2023-08-06T09:42:04;0.80;;;0.70;;
2021;SDS011;1015;49.756;6.994;2023-08-06T09:44:32;0.70;;;0.70;;
2021;SDS011;1015;49.756;6.994;2023-08-06T09:47:00;4.10;;;0.80;;
2021;SDS011;1015;49.756;6.994;2023-08-06T09:49:28;0.67;;;0.67;;
2021;SDS011;1015;49.756;6.994;2023-08-06T09:51:55;0.77;;;0.60;;
2021;SDS011;1015;49.756;6.994;2023-08-06T09:54:24;1.27;;;0.60;;
2021;SDS011;1015;49.756;6.994;2023-08-06T09:56:52;0.70;;;0.70;;
2021;SDS011;1015;49.756;6.994;2023-08-06T09:59:21;0.70;;;0.70;;
2021;SDS011;1015;49.756;6.994;2023-08-06T10:01:48;1.37;;;0.90;;
2021;SDS011;1015;49.756;6.994;2023-08-06T10:04:15;0.70;;;0.70;;
2021;SDS011;1015;49.756;6.994;2023-08-06T10:06:43;3.07;;;1.07;;
2021;SDS011;1015;49.756;6.994;2023-08-06T10:09:12;2.13;;;0.90;;
2021;SDS011;1015;49.756;6.994;2023-08-06T10:11:40;2.67;;;1.03;;
2021;SDS011;1015;49.756;6.994;2023-08-06T10:14:09;1.20;;;1.10;;
2021;SDS011;1015;49.756;6.994;2023-08-06T10:16:38;1.33;;;0.93;;
2021;SDS011;1015;49.756;6.994;2023-08-06T10:19:07;0.87;;;0.60;;
2021;SDS011;1015;49.756;6.994;2023-08-06T10:21:34;0.80;;;0.80;;
2021;SDS011;1015;49.756;6.994;2023-08-06T10:24:01;1.83;;;1.33;;
2021;SDS011;1015;49.756;6.994;2023-08-06T10:26:28;1.60;;;1.50;;
2021;SDS011;1015;49.756;6.994;2023-08-06T10:28:56;1.30;;;1.00;;
2021;SDS011;1015;49.756;6.994;2023-08-06T10:34:10;1.20;;;1.10;;
2021;SDS011;1015;49.756;6.994;2023-08-06T10:36:37;2.20;;;1.40;;
2021;SDS011;1015;49.756;6.994;2023-08-06T10:39:05;1.20;;;1.10;;
2021;SDS011;1015;49.756;6.994;2023-08-06T10:41:32;2.03;;;1.10;;
2021;SDS011;1015;49.756;6.994;2023-08-06T10:44:05;1.23;;;1.13;;
2021;SDS011;1015;49.756;6.994;2023-08-06T10:46:33;4.90;;;1.60;;
2021;SDS011;1015;49.756;6.994;2023-08-06T10:49:01;4.97;;;1.20;;
2021;SDS011;1015;49.756;6.994;2023-08-06T10:51:30;1.70;;;1.30;;
2021;SDS011;1015;49.756;6.994;2023-08-06T10:53:57;3.20;;;1.40;;
2021;SDS011;1015;49.756;6.994;2023-08-06T10:56:25;1.13;;;1.03;;
2021;SDS011;1015;49.756;6.994;2023-08-06T10:58:53;0.80;;;0.80;;
2021;SDS011;1015;49.756;6.994;2023-08-06T11:01:20;5.20;;;1.07;;
2021;SDS011;1015;49.756;6.994;2023-08-06T11:03:48;1.87;;;1.77;;
2021;SDS011;1015;49.756;6.994;2023-08-06T11:06:18;1.50;;;1.20;;
2021;SDS011;1015;49.756;6.994;2023-08-06T11:11:16;1.40;;;1.00;;
2021;SDS011;1015;49.756;6.994;2023-08-06T11:13:44;1.23;;;1.03;;
2021;SDS011;1015;49.756;6.994;2023-08-06T11:16:12;1.37;;;1.23;;
2021;SDS011;1015;49.756;6.994;2023-08-06T11:18:39;1.40;;;1.00;;
2021;SDS011;1015;49.756;6.994;2023-08-06T11:21:07;1.03;;;0.70;;
2021;SDS011;1015;49.756;6.994;2023-08-06T11:23:34;3.33;;;0.87;;
2021;SDS011;1015;49.756;6.994;2023-08-06T11:26:02;0.93;;;0.87;;
2021;SDS011;1015;49.756;6.994;2023-08-06T11:28:31;2.57;;;0.70;;
2021;SDS011;1015;49.756;6.994;2023-08-06T11:30:58;0.67;;;0.67;;
2021;SDS011;1015;49.756;6.994;2023-08-06T11:33:27;2.10;;;0.80;;
2021;SDS011;1015;49.756;6.994;2023-08-06T11:35:55;1.20;;;0.73;;
2021;SDS011;1015;49.756;6.994;2023-08-06T11:38:24;1.77;;;0.73;;
2021;SDS011;1015;49.756;6.994;2023-08-06T11:40:52;1.20;;;1.10;;
2021;SDS011;1015;49.756;6.994;2023-08-06T11:43:19;1.53;;;0.80;;
2021;SDS011;1015;49.756;6.994;2023-08-06T11:45:48;0.70;;;0.70;;
2021;SDS011;1015;49.756;6.994;2023-08-06T11:48:17;0.80;;;0.80;;
2021;SDS011;1015;49.756;6.994;2023-08-06T11:50:44;1.87;;;0.83;;
2021;SDS011;1015;49.756;6.994;2023-08-06T11:53:12;1.00;;;0.90;;
2021;SDS011;1015;49.756;6.994;2023-08-06T11:55:40;0.67;;;0.63;;
2021;SDS011;1015;49.756;6.994;2023-08-06T11:58:08;1.10;;;0.70;;
2021;SDS011;1015;49.756;6.994;2023-08-06T12:00:36;2.23;;;0.53;;
2021;SDS011;1015;49.756;6.994;2023-08-06T12:03:05;0.70;;;0.70;;
2021;SDS011;1015;49.756;6.994;2023-08-06T12:05:32;1.80;;;0.87;;
2021;SDS011;1015;49.756;6.994;2023-08-06T12:08:00;0.70;;;0.60;;
2021;SDS011;1015;49.756;6.994;2023-08-06T12:10:28;0.70;;;0.70;;
2021;SDS011;1015;49.756;6.994;2023-08-06T12:12:55;0.70;;;0.60;;
2021;SDS011;1015;49.756;6.994;2023-08-06T12:15:23;0.97;;;0.90;;
2021;SDS011;1015;49.756;6.994;2023-08-06T12:17:50;0.83;;;0.77;;
2021;SDS011;1015;49.756;6.994;2023-08-06T12:20:19;1.30;;;0.80;;
2021;SDS011;1015;49.756;6.994;2023-08-06T12:22:46;1.00;;;0.67;;
2021;SDS011;1015;49.756;6.994;2023-08-06T12:25:13;1.13;;;0.83;;
2021;SDS011;1015;49.756;6.994;2023-08-06T12:27:42;1.50;;;0.70;;
2021;SDS011;1015;49.756;6.994;2023-08-06T12:30:10;1.00;;;0.90;;
2021;SDS011;1015;49.756;6.994;2023-08-06T12:32:37;0.70;;;0.60;;
2021;SDS011;1015;49.756;6.994;2023-08-06T12:35:04;1.60;;;0.80;;
2021;SDS011;1015;49.756;6.994;2023-08-06T12:37:33;0.97;;;0.77;;
2021;SDS011;1015;49.756;6.994;2023-08-06T12:40:01;0.80;;;0.80;;
2021;SDS011;1015;49.756;6.994;2023-08-06T12:42:28;0.73;;;0.70;;
2021;SDS011;1015;49.756;6.994;2023-08-06T12:44:55;1.50;;;0.87;;
2021;SDS011;1015;49.756;6.994;2023-08-06T12:47:22;0.50;;;0.43;;
2021;SDS011;1015;49.756;6.994;2023-08-06T12:49:49;0.50;;;0.50;;
2021;SDS011;1015;49.756;6.994;2023-08-06T12:52:17;0.90;;;0.70;;
2021;SDS011;1015;49.756;6.994;2023-08-06T12:54:46;0.80;;;0.80;;
2021;SDS011;1015;49.756;6.994;2023-08-06T12:57:13;0.50;;;0.50;;
2021;SDS011;1015;49.756;6.994;2023-08-06T12:59:40;0.73;;;0.60;;
2021;SDS011;1015;49.756;6.994;2023-08-06T13:02:07;0.60;;;0.60;;
2021;SDS011;1015;49.756;6.994;2023-08-06T13:04:34;0.70;;;0.70;;
2021;SDS011;1015;49.756;6.994;2023-08-06T13:07:01;1.53;;;0.70;;
2021;SDS011;1015;49.756;6.994;2023-08-06T13:09:31;0.60;;;0.53;;
2021;SDS011;1015;49.756;6.994;2023-08-06T13:11:59;0.53;;;0.30;;
2021;SDS011;1015;49.756;6.994;2023-08-06T13:14:30;0.50;;;0.40;;
2021;SDS011;1015;49.756;6.994;2023-08-06T13:16:57;0.70;;;0.67;;
2021;SDS011;1015;49.756;6.994;2023-08-06T13:19:25;0.60;;;0.50;;
2021;SDS011;1015;49.756;6.994;2023-08-06T13:21:58;0.60;;;0.53;;
2021;SDS011;1015;49.756;6.994;2023-08-06T13:24:26;0.60;;;0.40;;
2021;SDS011;1015;49.756;6.994;2023-08-06T13:26:53;0.93;;;0.50;;
2021;SDS011;1015;49.756;6.994;2023-08-06T13:29:22;0.50;;;0.33;;
2021;SDS011;1015;49.756;6.994;2023-08-06T13:31:49;0.60;;;0.60;;
2021;SDS011;1015;49.756;6.994;2023-08-06T13:34:16;0.50;;;0.50;;
2021;SDS011;1015;49.756;6.994;2023-08-06T13:36:43;0.60;;;0.50;;
2021;SDS011;1015;49.756;6.994;2023-08-06T13:39:10;0.50;;;0.50;;
2021;SDS011;1015;49.756;6.994;2023-08-06T13:41:37;0.80;;;0.50;;
2021;SDS011;1015;49.756;6.994;2023-08-06T13:44:05;0.70;;;0.53;;
2021;SDS011;1015;49.756;6.994;2023-08-06T13:46:34;0.50;;;0.40;;
2021;SDS011;1015;49.756;6.994;2023-08-06T13:49:01;0.63;;;0.60;;
2021;SDS011;1015;49.756;6.994;2023-08-06T13:51:28;0.50;;;0.40;;
2021;SDS011;1015;49.756;6.994;2023-08-06T13:53:55;1.27;;;0.60;;
2021;SDS011;1015;49.756;6.994;2023-08-06T13:56:22;0.40;;;0.40;;
2021;SDS011;1015;49.756;6.994;2023-08-06T13:58:49;0.50;;;0.50;;
2021;SDS011;1015;49.756;6.994;2023-08-06T14:01:17;1.60;;;0.60;;
2021;SDS011;1015;49.756;6.994;2023-08-06T14:03:46;0.90;;;0.50;;
2021;SDS011;1015;49.756;6.994;2023-08-06T14:06:13;0.60;;;0.50;;
2021;SDS011;1015;49.756;6.994;2023-08-06T14:08:40;1.30;;;0.50;;
2021;SDS011;1015;49.756;6.994;2023-08-06T14:11:07;0.70;;;0.70;;
2021;SDS011;1015;49.756;6.994;2023-08-06T14:13:35;0.80;;;0.50;;
2021;SDS011;1015;49.756;6.994;2023-08-06T14:16:02;1.77;;;0.90;;
2021;SDS011;1015;49.756;6.994;2023-08-06T14:18:30;0.97;;;0.60;;
2021;SDS011;1015;49.756;6.994;2023-08-06T14:20:58;0.80;;;0.80;;
2021;SDS011;1015;49.756;6.994;2023-08-06T14:23:25;0.63;;;0.63;;
2021;SDS011;1015;49.756;6.994;2023-08-06T14:25:52;0.80;;;0.80;;
2021;SDS011;1015;49.756;6.994;2023-08-06T14:28:19;0.90;;;0.63;;
2021;SDS011;1015;49.756;6.994;2023-08-06T14:30:47;0.63;;;0.60;;
2021;SDS011;1015;49.756;6.994;2023-08-06T14:33:14;0.60;;;0.50;;
2021;SDS011;1015;49.756;6.994;2023-08-06T14:35:41;1.80;;;0.90;;
2021;SDS011;1015;49.756;6.994;2023-08-06T14:38:09;1.13;;;0.67;;
2021;SDS011;1015;49.756;6.994;2023-08-06T14:40:36;2.80;;;0.90;;
2021;SDS011;1015;49.756;6.994;2023-08-06T14:43:04;1.50;;;0.70;;
2021;SDS011;1015;49.756;6.994;2023-08-06T14:45:32;2.63;;;1.00;;
2021;SDS011;1015;49.756;6.994;2023-08-06T14:47:59;0.47;;;0.47;;
2021;SDS011;1015;49.756;6.994;2023-08-06T14:50:26;2.20;;;1.00;;
2021;SDS011;1015;49.756;6.994;2023-08-06T14:52:53;1.37;;;0.90;;
2021;SDS011;1015;49.756;6.994;2023-08-06T14:55:24;0.80;;;0.80;;
2021;SDS011;1015;49.756;6.994;2023-08-06T14:57:51;0.60;;;0.60;;
2021;SDS011;1015;49.756;6.994;2023-08-06T15:00:19;1.43;;;0.90;;
2021;SDS011;1015;49.756;6.994;2023-08-06T15:02:46;7.33;;;1.10;;
2021;SDS011;1015;49.756;6.994;2023-08-06T15:05:14;0.60;;;0.60;;
2021;SDS011;1015;49.756;6.994;2023-08-06T15:07:41;1.10;;;1.10;;
2021;SDS011;1015;49.756;6.994;2023-08-06T15:10:08;3.20;;;0.87;;
2021;SDS011;1015;49.756;6.994;2023-08-06T15:12:36;0.97;;;0.57;;
2021;SDS011;1015;49.756;6.994;2023-08-06T15:15:06;0.70;;;0.63;;
2021;SDS011;1015;49.756;6.994;2023-08-06T15:17:33;0.70;;;0.67;;
2021;SDS011;1015;49.756;6.994;2023-08-06T15:20:00;0.60;;;0.50;;
2021;SDS011;1015;49.756;6.994;2023-08-06T15:22:27;0.93;;;0.70;;